sensor_id;sensor_type;location;lat;lon;timestamp;P1;durP1;ratioP1;P2;durP2;ratioP2
81714;SDS011;71125;44.066;2.982;2024-03-02T00:02:06;9.95;;;3.92;;
81714;SDS011;71125;44.066;2.982;2024-03-02T00:04:33;15.77;;;4.40;;
81714;SDS011;71125;44.066;2.982;2024-03-02T00:09:27;6.13;;;2.60;;
81714;SDS011;71125;44.066;2.982;2024-03-02T00:11:54;11.27;;;2.63;;
81714;SDS011;71125;44.066;2.982;2024-03-02T00:14:20;9.05;;;2.38;;
81714;SDS011;71125;44.066;2.982;2024-03-02T00:16:51;10.13;;;2.67;;
81714;SDS011;71125;44.066;2.982;2024-03-02T00:19:18;13.60;;;2.72;;
81714;SDS011;71125;44.066;2.982;2024-03-02T00:21:44;10.18;;;3.13;;
81714;SDS011;71125;44.066;2.982;2024-03-02T00:24:43;9.43;;;3.33;;
81714;SDS011;71125;44.066;2.982;2024-03-02T00:27:07;13.85;;;3.10;;
81714;SDS011;71125;44.066;2.982;2024-03-02T00:29:36;8.35;;;3.35;;
81714;SDS011;71125;44.066;2.982;2024-03-02T00:32:03;7.68;;;2.60;;
81714;SDS011;71125;44.066;2.982;2024-03-02T00:34:29;9.52;;;3.53;;
81714;SDS011;71125;44.066;2.982;2024-03-02T00:36:57;16.27;;;5.18;;
81714;SDS011;71125;44.066;2.982;2024-03-02T00:39:24;14.65;;;4.15;;
81714;SDS011;71125;44.066;2.982;2024-03-02T00:41:55;10.68;;;3.78;;
81714;SDS011;71125;44.066;2.982;2024-03-02T00:44:21;8.00;;;3.08;;
81714;SDS011;71125;44.066;2.982;2024-03-02T00:46:51;12.95;;;3.53;;
81714;SDS011;71125;44.066;2.982;2024-03-02T00:49:18;9.18;;;3.65;;
81714;SDS011;71125;44.066;2.982;2024-03-02T00:51:50;11.75;;;3.50;;
81714;SDS011;71125;44.066;2.982;2024-03-02T00:54:24;10.98;;;3.60;;
81714;SDS011;71125;44.066;2.982;2024-03-02T00:56:51;14.20;;;4.13;;
81714;SDS011;71125;44.066;2.982;2024-03-02T00:59:21;15.50;;;4.13;;
81714;SDS011;71125;44.066;2.982;2024-03-02T01:01:48;10.82;;;3.50;;
81714;SDS011;71125;44.066;2.982;2024-03-02T01:04:14;9.98;;;3.58;;
81714;SDS011;71125;44.066;2.982;2024-03-02T01:09:07;11.82;;;2.58;;
81714;SDS011;71125;44.066;2.982;2024-03-02T01:13:59;10.85;;;3.92;;
81714;SDS011;71125;44.066;2.982;2024-03-02T01:16:25;9.13;;;3.75;;
81714;SDS011;71125;44.066;2.982;2024-03-02T01:21:19;13.23;;;4.28;;
81714;SDS011;71125;44.066;2.982;2024-03-02T01:26:16;13.70;;;4.63;;
81714;SDS011;71125;44.066;2.982;2024-03-02T01:28:45;13.45;;;4.93;;
81714;SDS011;71125;44.066;2.982;2024-03-02T01:31:14;18.13;;;5.32;;
81714;SDS011;71125;44.066;2.982;2024-03-02T01:33:40;17.00;;;4.18;;
81714;SDS011;71125;44.066;2.982;2024-03-02T01:38:36;18.10;;;5.30;;
81714;SDS011;71125;44.066;2.982;2024-03-02T01:41:02;19.40;;;5.63;;
81714;SDS011;71125;44.066;2.982;2024-03-02T01:45:57;16.95;;;4.60;;
81714;SDS011;71125;44.066;2.982;2024-03-02T01:48:32;10.90;;;4.30;;
81714;SDS011;71125;44.066;2.982;2024-03-02T01:50:59;11.63;;;4.30;;
81714;SDS011;71125;44.066;2.982;2024-03-02T01:53:26;9.85;;;4.40;;
81714;SDS011;71125;44.066;2.982;2024-03-02T01:55:53;20.95;;;5.63;;
81714;SDS011;71125;44.066;2.982;2024-03-02T02:00:45;14.98;;;4.10;;
81714;SDS011;71125;44.066;2.982;2024-03-02T02:03:11;8.93;;;3.30;;
81714;SDS011;71125;44.066;2.982;2024-03-02T02:05:37;14.48;;;5.75;;
81714;SDS011;71125;44.066;2.982;2024-03-02T02:10:32;13.63;;;4.28;;
81714;SDS011;71125;44.066;2.982;2024-03-02T02:12:58;12.68;;;4.03;;
81714;SDS011;71125;44.066;2.982;2024-03-02T02:15:27;11.48;;;3.75;;
81714;SDS011;71125;44.066;2.982;2024-03-02T02:17:54;9.88;;;3.42;;
81714;SDS011;71125;44.066;2.982;2024-03-02T02:20:26;11.48;;;3.38;;
81714;SDS011;71125;44.066;2.982;2024-03-02T02:22:59;17.88;;;4.00;;
81714;SDS011;71125;44.066;2.982;2024-03-02T02:25:25;13.50;;;3.30;;
81714;SDS011;71125;44.066;2.982;2024-03-02T02:27:51;6.50;;;2.53;;
81714;SDS011;71125;44.066;2.982;2024-03-02T02:32:43;8.38;;;2.65;;
81714;SDS011;71125;44.066;2.982;2024-03-02T02:35:09;13.25;;;2.75;;
81714;SDS011;71125;44.066;2.982;2024-03-02T02:37:39;7.07;;;2.55;;
81714;SDS011;71125;44.066;2.982;2024-03-02T02:40:08;11.32;;;3.50;;
81714;SDS011;71125;44.066;2.982;2024-03-02T02:42:34;13.00;;;3.47;;
81714;SDS011;71125;44.066;2.982;2024-03-02T02:47:26;7.95;;;3.45;;
81714;SDS011;71125;44.066;2.982;2024-03-02T02:49:54;12.90;;;3.42;;
81714;SDS011;71125;44.066;2.982;2024-03-02T02:52:24;9.73;;;3.65;;
81714;SDS011;71125;44.066;2.982;2024-03-02T02:54:50;21.83;;;4.65;;
81714;SDS011;71125;44.066;2.982;2024-03-02T02:57:16;14.13;;;3.42;;
81714;SDS011;71125;44.066;2.982;2024-03-02T03:02:10;5.90;;;2.42;;
81714;SDS011;71125;44.066;2.982;2024-03-02T03:04:36;12.90;;;3.22;;
81714;SDS011;71125;44.066;2.982;2024-03-02T03:07:05;11.52;;;2.88;;
81714;SDS011;71125;44.066;2.982;2024-03-02T03:09:31;7.07;;;3.10;;
81714;SDS011;71125;44.066;2.982;2024-03-02T03:11:58;7.20;;;2.88;;
81714;SDS011;71125;44.066;2.982;2024-03-02T03:16:50;9.98;;;2.85;;
81714;SDS011;71125;44.066;2.982;2024-03-02T03:21:43;7.80;;;2.85;;
81714;SDS011;71125;44.066;2.982;2024-03-02T03:24:09;8.55;;;3.03;;
81714;SDS011;71125;44.066;2.982;2024-03-02T03:29:01;10.30;;;2.67;;
81714;SDS011;71125;44.066;2.982;2024-03-02T03:33:53;7.93;;;2.83;;
81714;SDS011;71125;44.066;2.982;2024-03-02T03:36:20;8.13;;;2.42;;
81714;SDS011;71125;44.066;2.982;2024-03-02T03:38:46;12.15;;;2.90;;
81714;SDS011;71125;44.066;2.982;2024-03-02T03:41:16;9.45;;;3.40;;
81714;SDS011;71125;44.066;2.982;2024-03-02T03:43:42;8.18;;;2.65;;
81714;SDS011;71125;44.066;2.982;2024-03-02T03:46:08;10.32;;;2.45;;
81714;SDS011;71125;44.066;2.982;2024-03-02T03:48:34;6.60;;;2.28;;
81714;SDS011;71125;44.066;2.982;2024-03-02T03:53:26;7.53;;;2.58;;
81714;SDS011;71125;44.066;2.982;2024-03-02T03:55:52;8.57;;;2.85;;
81714;SDS011;71125;44.066;2.982;2024-03-02T03:58:18;13.68;;;3.33;;
81714;SDS011;71125;44.066;2.982;2024-03-02T04:00:45;12.05;;;3.28;;
81714;SDS011;71125;44.066;2.982;2024-03-02T04:05:38;15.43;;;2.55;;
81714;SDS011;71125;44.066;2.982;2024-03-02T04:08:04;7.20;;;2.67;;
81714;SDS011;71125;44.066;2.982;2024-03-02T04:10:30;8.25;;;2.83;;
81714;SDS011;71125;44.066;2.982;2024-03-02T04:12:59;12.52;;;2.53;;
81714;SDS011;71125;44.066;2.982;2024-03-02T04:15:25;11.35;;;2.97;;
81714;SDS011;71125;44.066;2.982;2024-03-02T04:17:54;7.18;;;2.75;;
81714;SDS011;71125;44.066;2.982;2024-03-02T04:20:20;6.07;;;1.92;;
81714;SDS011;71125;44.066;2.982;2024-03-02T04:22:47;5.75;;;2.35;;
81714;SDS011;71125;44.066;2.982;2024-03-02T04:25:13;6.22;;;1.98;;
81714;SDS011;71125;44.066;2.982;2024-03-02T04:30:05;8.52;;;2.25;;
81714;SDS011;71125;44.066;2.982;2024-03-02T04:32:34;10.23;;;2.17;;
81714;SDS011;71125;44.066;2.982;2024-03-02T04:35:01;8.23;;;3.00;;
81714;SDS011;71125;44.066;2.982;2024-03-02T04:37:27;6.95;;;2.63;;
81714;SDS011;71125;44.066;2.982;2024-03-02T04:39:59;5.88;;;2.47;;
81714;SDS011;71125;44.066;2.982;2024-03-02T04:42:25;9.07;;;2.55;;
81714;SDS011;71125;44.066;2.982;2024-03-02T04:44:51;7.45;;;2.67;;
81714;SDS011;71125;44.066;2.982;2024-03-02T04:47:21;7.88;;;3.17;;
81714;SDS011;71125;44.066;2.982;2024-03-02T04:49:47;14.15;;;3.08;;
81714;SDS011;71125;44.066;2.982;2024-03-02T04:52:16;11.82;;;3.60;;
81714;SDS011;71125;44.066;2.982;2024-03-02T04:54:46;13.25;;;3.83;;
81714;SDS011;71125;44.066;2.982;2024-03-02T04:57:44;11.18;;;4.53;;
81714;SDS011;71125;44.066;2.982;2024-03-02T05:00:11;11.10;;;4.00;;
81714;SDS011;71125;44.066;2.982;2024-03-02T05:02:37;13.55;;;4.75;;
81714;SDS011;71125;44.066;2.982;2024-03-02T05:05:04;6.82;;;3.50;;
81714;SDS011;71125;44.066;2.982;2024-03-02T05:09:59;11.50;;;3.03;;
81714;SDS011;71125;44.066;2.982;2024-03-02T05:15:20;9.70;;;2.65;;
81714;SDS011;71125;44.066;2.982;2024-03-02T05:17:47;10.90;;;3.45;;
81714;SDS011;71125;44.066;2.982;2024-03-02T05:20:14;28.38;;;5.78;;
81714;SDS011;71125;44.066;2.982;2024-03-02T05:22:40;24.38;;;4.53;;
81714;SDS011;71125;44.066;2.982;2024-03-02T05:25:27;27.48;;;5.75;;
81714;SDS011;71125;44.066;2.982;2024-03-02T05:30:19;10.18;;;2.50;;
81714;SDS011;71125;44.066;2.982;2024-03-02T05:32:46;18.23;;;3.65;;
81714;SDS011;71125;44.066;2.982;2024-03-02T05:35:12;22.52;;;4.55;;
81714;SDS011;71125;44.066;2.982;2024-03-02T05:40:04;14.18;;;3.55;;
81714;SDS011;71125;44.066;2.982;2024-03-02T05:42:31;14.77;;;2.42;;
81714;SDS011;71125;44.066;2.982;2024-03-02T05:44:57;9.15;;;2.17;;
81714;SDS011;71125;44.066;2.982;2024-03-02T05:50:04;9.82;;;2.03;;
81714;SDS011;71125;44.066;2.982;2024-03-02T05:52:38;9.20;;;2.15;;
81714;SDS011;71125;44.066;2.982;2024-03-02T05:55:13;6.43;;;2.17;;
81714;SDS011;71125;44.066;2.982;2024-03-02T05:57:41;15.05;;;2.80;;
81714;SDS011;71125;44.066;2.982;2024-03-02T06:00:25;10.65;;;3.10;;
81714;SDS011;71125;44.066;2.982;2024-03-02T06:02:52;6.22;;;2.45;;
81714;SDS011;71125;44.066;2.982;2024-03-02T06:05:18;8.55;;;2.50;;
81714;SDS011;71125;44.066;2.982;2024-03-02T06:07:44;11.85;;;2.88;;
81714;SDS011;71125;44.066;2.982;2024-03-02T06:10:10;28.33;;;5.20;;
81714;SDS011;71125;44.066;2.982;2024-03-02T06:12:36;18.70;;;4.05;;
81714;SDS011;71125;44.066;2.982;2024-03-02T06:15:02;7.45;;;2.20;;
81714;SDS011;71125;44.066;2.982;2024-03-02T06:17:32;8.50;;;2.22;;
81714;SDS011;71125;44.066;2.982;2024-03-02T06:19:58;10.25;;;2.10;;
81714;SDS011;71125;44.066;2.982;2024-03-02T06:22:27;11.32;;;2.30;;
81714;SDS011;71125;44.066;2.982;2024-03-02T06:24:53;8.43;;;2.42;;
81714;SDS011;71125;44.066;2.982;2024-03-02T06:27:19;13.85;;;2.95;;
81714;SDS011;71125;44.066;2.982;2024-03-02T06:29:45;8.40;;;2.50;;
81714;SDS011;71125;44.066;2.982;2024-03-02T06:32:14;11.20;;;2.13;;
81714;SDS011;71125;44.066;2.982;2024-03-02T06:34:40;9.70;;;2.00;;
81714;SDS011;71125;44.066;2.982;2024-03-02T06:37:09;7.30;;;1.73;;
81714;SDS011;71125;44.066;2.982;2024-03-02T06:39:35;7.35;;;1.73;;
81714;SDS011;71125;44.066;2.982;2024-03-02T06:42:01;6.38;;;2.03;;
81714;SDS011;71125;44.066;2.982;2024-03-02T06:44:32;7.05;;;1.92;;
81714;SDS011;71125;44.066;2.982;2024-03-02T06:46:58;6.63;;;1.90;;
81714;SDS011;71125;44.066;2.982;2024-03-02T06:49:24;7.65;;;2.08;;
81714;SDS011;71125;44.066;2.982;2024-03-02T06:51:51;8.65;;;2.25;;
81714;SDS011;71125;44.066;2.982;2024-03-02T06:54:17;10.50;;;2.35;;
81714;SDS011;71125;44.066;2.982;2024-03-02T06:56:43;9.88;;;2.60;;
81714;SDS011;71125;44.066;2.982;2024-03-02T06:59:09;9.65;;;2.63;;
81714;SDS011;71125;44.066;2.982;2024-03-02T07:01:41;9.65;;;3.20;;
81714;SDS011;71125;44.066;2.982;2024-03-02T07:04:08;11.15;;;3.28;;
81714;SDS011;71125;44.066;2.982;2024-03-02T07:06:34;9.70;;;3.50;;
81714;SDS011;71125;44.066;2.982;2024-03-02T07:09:00;7.88;;;3.03;;
81714;SDS011;71125;44.066;2.982;2024-03-02T07:11:37;9.25;;;3.60;;
81714;SDS011;71125;44.066;2.982;2024-03-02T07:14:03;29.13;;;8.07;;
81714;SDS011;71125;44.066;2.982;2024-03-02T07:16:29;18.08;;;6.07;;
81714;SDS011;71125;44.066;2.982;2024-03-02T07:19:01;35.35;;;11.98;;
81714;SDS011;71125;44.066;2.982;2024-03-02T07:21:30;35.00;;;10.38;;
81714;SDS011;71125;44.066;2.982;2024-03-02T07:24:00;27.50;;;7.43;;
81714;SDS011;71125;44.066;2.982;2024-03-02T07:26:28;15.48;;;4.65;;
81714;SDS011;71125;44.066;2.982;2024-03-02T07:28:59;12.73;;;3.38;;
81714;SDS011;71125;44.066;2.982;2024-03-02T07:31:28;10.68;;;2.80;;
81714;SDS011;71125;44.066;2.982;2024-03-02T07:33:54;11.80;;;3.33;;
81714;SDS011;71125;44.066;2.982;2024-03-02T07:36:24;18.10;;;7.50;;
81714;SDS011;71125;44.066;2.982;2024-03-02T07:39:02;10.70;;;3.08;;
81714;SDS011;71125;44.066;2.982;2024-03-02T07:41:28;9.45;;;3.20;;
81714;SDS011;71125;44.066;2.982;2024-03-02T07:43:58;5.70;;;2.60;;
81714;SDS011;71125;44.066;2.982;2024-03-02T07:46:24;10.18;;;3.28;;
81714;SDS011;71125;44.066;2.982;2024-03-02T07:51:17;7.88;;;3.03;;
81714;SDS011;71125;44.066;2.982;2024-03-02T07:53:44;16.58;;;4.78;;
81714;SDS011;71125;44.066;2.982;2024-03-02T07:56:13;4.18;;;1.98;;
81714;SDS011;71125;44.066;2.982;2024-03-02T07:58:49;4.78;;;2.00;;
81714;SDS011;71125;44.066;2.982;2024-03-02T08:01:15;6.22;;;1.58;;
81714;SDS011;71125;44.066;2.982;2024-03-02T08:03:42;18.55;;;6.22;;
81714;SDS011;71125;44.066;2.982;2024-03-02T08:06:13;15.43;;;2.90;;
81714;SDS011;71125;44.066;2.982;2024-03-02T08:09:05;7.43;;;2.13;;
81714;SDS011;71125;44.066;2.982;2024-03-02T08:11:35;5.82;;;2.33;;
81714;SDS011;71125;44.066;2.982;2024-03-02T08:14:05;19.33;;;6.03;;
81714;SDS011;71125;44.066;2.982;2024-03-02T08:16:34;23.58;;;8.05;;
81714;SDS011;71125;44.066;2.982;2024-03-02T08:19:00;15.80;;;3.92;;
81714;SDS011;71125;44.066;2.982;2024-03-02T08:21:29;13.80;;;4.63;;
81714;SDS011;71125;44.066;2.982;2024-03-02T08:23:57;6.32;;;1.65;;
81714;SDS011;71125;44.066;2.982;2024-03-02T08:26:29;2.65;;;0.90;;
81714;SDS011;71125;44.066;2.982;2024-03-02T08:29:02;6.03;;;1.50;;
81714;SDS011;71125;44.066;2.982;2024-03-02T08:31:34;7.47;;;2.53;;
81714;SDS011;71125;44.066;2.982;2024-03-02T08:34:00;11.20;;;3.53;;
81714;SDS011;71125;44.066;2.982;2024-03-02T08:36:27;15.48;;;3.78;;
81714;SDS011;71125;44.066;2.982;2024-03-02T08:38:59;34.17;;;9.10;;
81714;SDS011;71125;44.066;2.982;2024-03-02T08:41:28;6.57;;;1.42;;
81714;SDS011;71125;44.066;2.982;2024-03-02T08:43:54;6.47;;;1.63;;
81714;SDS011;71125;44.066;2.982;2024-03-02T08:46:20;8.88;;;1.55;;
81714;SDS011;71125;44.066;2.982;2024-03-02T08:49:00;8.70;;;1.85;;
81714;SDS011;71125;44.066;2.982;2024-03-02T08:51:26;8.50;;;2.35;;
81714;SDS011;71125;44.066;2.982;2024-03-02T08:53:52;5.82;;;1.27;;
81714;SDS011;71125;44.066;2.982;2024-03-02T08:56:21;6.30;;;1.48;;
81714;SDS011;71125;44.066;2.982;2024-03-02T08:58:48;9.07;;;1.17;;
81714;SDS011;71125;44.066;2.982;2024-03-02T09:01:21;5.15;;;1.17;;
81714;SDS011;71125;44.066;2.982;2024-03-02T09:03:47;3.10;;;1.10;;
81714;SDS011;71125;44.066;2.982;2024-03-02T09:06:17;3.75;;;0.90;;
81714;SDS011;71125;44.066;2.982;2024-03-02T09:08:47;2.33;;;0.75;;
81714;SDS011;71125;44.066;2.982;2024-03-02T09:11:14;4.93;;;1.25;;
81714;SDS011;71125;44.066;2.982;2024-03-02T09:13:40;4.00;;;1.00;;
81714;SDS011;71125;44.066;2.982;2024-03-02T09:16:07;6.35;;;1.08;;
81714;SDS011;71125;44.066;2.982;2024-03-02T09:18:36;1.92;;;0.60;;
81714;SDS011;71125;44.066;2.982;2024-03-02T09:21:02;4.15;;;0.90;;
81714;SDS011;71125;44.066;2.982;2024-03-02T09:23:29;9.25;;;1.73;;
81714;SDS011;71125;44.066;2.982;2024-03-02T09:25:55;9.10;;;2.97;;
81714;SDS011;71125;44.066;2.982;2024-03-02T09:28:21;8.75;;;1.25;;
81714;SDS011;71125;44.066;2.982;2024-03-02T09:30:47;3.38;;;0.95;;
81714;SDS011;71125;44.066;2.982;2024-03-02T09:33:13;5.05;;;0.88;;
81714;SDS011;71125;44.066;2.982;2024-03-02T09:35:39;5.50;;;1.13;;
81714;SDS011;71125;44.066;2.982;2024-03-02T09:38:05;3.15;;;0.88;;
81714;SDS011;71125;44.066;2.982;2024-03-02T09:40:32;6.70;;;0.93;;
81714;SDS011;71125;44.066;2.982;2024-03-02T09:42:58;6.60;;;1.30;;
81714;SDS011;71125;44.066;2.982;2024-03-02T09:45:24;3.38;;;0.90;;
81714;SDS011;71125;44.066;2.982;2024-03-02T09:47:54;3.83;;;0.93;;
81714;SDS011;71125;44.066;2.982;2024-03-02T09:50:29;4.93;;;0.85;;
81714;SDS011;71125;44.066;2.982;2024-03-02T09:52:55;6.10;;;1.17;;
81714;SDS011;71125;44.066;2.982;2024-03-02T09:55:21;3.72;;;0.73;;
81714;SDS011;71125;44.066;2.982;2024-03-02T09:57:48;4.80;;;0.88;;
81714;SDS011;71125;44.066;2.982;2024-03-02T10:00:14;7.95;;;1.13;;
81714;SDS011;71125;44.066;2.982;2024-03-02T10:02:41;7.65;;;0.88;;
81714;SDS011;71125;44.066;2.982;2024-03-02T10:05:08;4.07;;;1.00;;
81714;SDS011;71125;44.066;2.982;2024-03-02T10:07:34;5.22;;;1.10;;
81714;SDS011;71125;44.066;2.982;2024-03-02T10:10:12;4.63;;;0.80;;
81714;SDS011;71125;44.066;2.982;2024-03-02T10:12:39;11.85;;;1.17;;
81714;SDS011;71125;44.066;2.982;2024-03-02T10:15:05;4.68;;;1.30;;
81714;SDS011;71125;44.066;2.982;2024-03-02T10:17:32;3.25;;;1.00;;
81714;SDS011;71125;44.066;2.982;2024-03-02T10:19:58;6.25;;;0.65;;
81714;SDS011;71125;44.066;2.982;2024-03-02T10:22:24;5.03;;;0.88;;
81714;SDS011;71125;44.066;2.982;2024-03-02T10:24:51;5.90;;;1.65;;
81714;SDS011;71125;44.066;2.982;2024-03-02T10:27:27;6.10;;;1.10;;
81714;SDS011;71125;44.066;2.982;2024-03-02T10:29:54;4.78;;;1.27;;
81714;SDS011;71125;44.066;2.982;2024-03-02T10:32:21;8.05;;;1.00;;
81714;SDS011;71125;44.066;2.982;2024-03-02T10:34:48;3.13;;;0.93;;
81714;SDS011;71125;44.066;2.982;2024-03-02T10:37:15;7.68;;;1.20;;
81714;SDS011;71125;44.066;2.982;2024-03-02T10:39:45;5.90;;;0.88;;
81714;SDS011;71125;44.066;2.982;2024-03-02T10:42:12;2.97;;;0.85;;
81714;SDS011;71125;44.066;2.982;2024-03-02T10:44:38;5.72;;;0.80;;
81714;SDS011;71125;44.066;2.982;2024-03-02T10:47:05;6.18;;;1.20;;
81714;SDS011;71125;44.066;2.982;2024-03-02T10:49:31;5.57;;;1.10;;
81714;SDS011;71125;44.066;2.982;2024-03-02T10:52:01;5.25;;;0.80;;
81714;SDS011;71125;44.066;2.982;2024-03-02T10:54:27;3.80;;;0.73;;
81714;SDS011;71125;44.066;2.982;2024-03-02T10:57:01;4.85;;;1.00;;
81714;SDS011;71125;44.066;2.982;2024-03-02T11:00:06;13.10;;;1.35;;
81714;SDS011;71125;44.066;2.982;2024-03-02T11:02:40;2.63;;;0.73;;
81714;SDS011;71125;44.066;2.982;2024-03-02T11:05:08;3.42;;;0.98;;
81714;SDS011;71125;44.066;2.982;2024-03-02T11:07:35;4.88;;;1.10;;
81714;SDS011;71125;44.066;2.982;2024-03-02T11:10:03;3.85;;;0.93;;
81714;SDS011;71125;44.066;2.982;2024-03-02T11:12:42;9.13;;;1.20;;
81714;SDS011;71125;44.066;2.982;2024-03-02T11:15:10;4.18;;;1.05;;
81714;SDS011;71125;44.066;2.982;2024-03-02T11:17:37;3.58;;;0.85;;
81714;SDS011;71125;44.066;2.982;2024-03-02T11:20:05;10.10;;;2.78;;
81714;SDS011;71125;44.066;2.982;2024-03-02T11:22:34;8.35;;;1.25;;
81714;SDS011;71125;44.066;2.982;2024-03-02T11:25:00;5.90;;;1.00;;
81714;SDS011;71125;44.066;2.982;2024-03-02T11:33:09;5.60;;;1.10;;
81714;SDS011;71125;44.066;2.982;2024-03-02T11:35:42;7.75;;;1.67;;
81714;SDS011;71125;44.066;2.982;2024-03-02T11:38:10;3.28;;;0.75;;
81714;SDS011;71125;44.066;2.982;2024-03-02T11:40:36;6.90;;;1.17;;
81714;SDS011;71125;44.066;2.982;2024-03-02T11:43:04;5.80;;;1.27;;
81714;SDS011;71125;44.066;2.982;2024-03-02T11:45:31;8.77;;;1.05;;
81714;SDS011;71125;44.066;2.982;2024-03-02T11:47:58;6.50;;;1.33;;
81714;SDS011;71125;44.066;2.982;2024-03-02T11:50:35;4.40;;;1.05;;
81714;SDS011;71125;44.066;2.982;2024-03-02T11:53:03;5.97;;;1.00;;
81714;SDS011;71125;44.066;2.982;2024-03-02T11:55:36;4.90;;;1.13;;
81714;SDS011;71125;44.066;2.982;2024-03-02T11:58:05;6.90;;;1.17;;
81714;SDS011;71125;44.066;2.982;2024-03-02T12:00:31;4.22;;;1.15;;
81714;SDS011;71125;44.066;2.982;2024-03-02T12:03:01;10.50;;;1.85;;
81714;SDS011;71125;44.066;2.982;2024-03-02T12:05:28;6.22;;;1.63;;
81714;SDS011;71125;44.066;2.982;2024-03-02T12:07:57;7.53;;;1.33;;
81714;SDS011;71125;44.066;2.982;2024-03-02T12:10:24;6.82;;;2.55;;
81714;SDS011;71125;44.066;2.982;2024-03-02T12:12:56;4.25;;;0.90;;
81714;SDS011;71125;44.066;2.982;2024-03-02T12:15:29;4.38;;;1.13;;
81714;SDS011;71125;44.066;2.982;2024-03-02T12:17:56;3.17;;;1.15;;
81714;SDS011;71125;44.066;2.982;2024-03-02T12:20:23;4.10;;;0.93;;
81714;SDS011;71125;44.066;2.982;2024-03-02T12:22:53;3.47;;;0.70;;
81714;SDS011;71125;44.066;2.982;2024-03-02T12:25:19;4.43;;;0.90;;
81714;SDS011;71125;44.066;2.982;2024-03-02T12:27:46;2.45;;;0.60;;
81714;SDS011;71125;44.066;2.982;2024-03-02T12:30:13;6.93;;;1.23;;
81714;SDS011;71125;44.066;2.982;2024-03-02T12:32:40;1.83;;;0.73;;
81714;SDS011;71125;44.066;2.982;2024-03-02T12:35:06;4.07;;;1.00;;
81714;SDS011;71125;44.066;2.982;2024-03-02T12:37:32;3.88;;;1.02;;
81714;SDS011;71125;44.066;2.982;2024-03-02T12:39:59;4.03;;;0.77;;
81714;SDS011;71125;44.066;2.982;2024-03-02T12:42:25;6.35;;;1.52;;
81714;SDS011;71125;44.066;2.982;2024-03-02T12:44:53;4.10;;;1.08;;
81714;SDS011;71125;44.066;2.982;2024-03-02T12:47:20;4.72;;;0.90;;
81714;SDS011;71125;44.066;2.982;2024-03-02T12:49:46;4.63;;;0.90;;
81714;SDS011;71125;44.066;2.982;2024-03-02T12:52:15;3.72;;;0.75;;
81714;SDS011;71125;44.066;2.982;2024-03-02T12:54:42;5.20;;;0.98;;
81714;SDS011;71125;44.066;2.982;2024-03-02T12:57:09;3.90;;;1.38;;
81714;SDS011;71125;44.066;2.982;2024-03-02T12:59:35;5.57;;;1.63;;
81714;SDS011;71125;44.066;2.982;2024-03-02T13:02:02;5.45;;;0.88;;
81714;SDS011;71125;44.066;2.982;2024-03-02T13:04:28;6.97;;;0.90;;
81714;SDS011;71125;44.066;2.982;2024-03-02T13:06:56;2.45;;;0.73;;
81714;SDS011;71125;44.066;2.982;2024-03-02T13:09:23;4.47;;;1.20;;
81714;SDS011;71125;44.066;2.982;2024-03-02T13:11:49;5.35;;;1.15;;
81714;SDS011;71125;44.066;2.982;2024-03-02T13:14:15;7.57;;;1.35;;
81714;SDS011;71125;44.066;2.982;2024-03-02T13:16:41;3.38;;;0.95;;
81714;SDS011;71125;44.066;2.982;2024-03-02T13:19:11;4.07;;;0.88;;
81714;SDS011;71125;44.066;2.982;2024-03-02T13:21:37;6.50;;;0.90;;
81714;SDS011;71125;44.066;2.982;2024-03-02T13:24:03;3.70;;;0.75;;
81714;SDS011;71125;44.066;2.982;2024-03-02T13:26:30;5.47;;;1.00;;
81714;SDS011;71125;44.066;2.982;2024-03-02T13:28:56;1.48;;;0.55;;
81714;SDS011;71125;44.066;2.982;2024-03-02T13:31:22;3.92;;;1.10;;
81714;SDS011;71125;44.066;2.982;2024-03-02T13:33:48;3.65;;;0.90;;
81714;SDS011;71125;44.066;2.982;2024-03-02T13:36:14;4.90;;;0.85;;
81714;SDS011;71125;44.066;2.982;2024-03-02T13:38:40;5.07;;;1.13;;
81714;SDS011;71125;44.066;2.982;2024-03-02T13:41:07;3.10;;;0.65;;
81714;SDS011;71125;44.066;2.982;2024-03-02T13:43:33;4.45;;;1.02;;
81714;SDS011;71125;44.066;2.982;2024-03-02T13:46:01;2.35;;;0.82;;
81714;SDS011;71125;44.066;2.982;2024-03-02T13:48:27;1.25;;;0.52;;
81714;SDS011;71125;44.066;2.982;2024-03-02T13:50:53;7.13;;;0.68;;
81714;SDS011;71125;44.066;2.982;2024-03-02T13:53:19;7.00;;;1.10;;
81714;SDS011;71125;44.066;2.982;2024-03-02T13:55:46;5.38;;;1.05;;
81714;SDS011;71125;44.066;2.982;2024-03-02T13:58:12;2.50;;;0.75;;
81714;SDS011;71125;44.066;2.982;2024-03-02T14:00:38;2.67;;;0.90;;
81714;SDS011;71125;44.066;2.982;2024-03-02T14:03:05;3.83;;;0.65;;
81714;SDS011;71125;44.066;2.982;2024-03-02T14:05:32;4.57;;;0.60;;
81714;SDS011;71125;44.066;2.982;2024-03-02T14:07:58;3.13;;;0.80;;
81714;SDS011;71125;44.066;2.982;2024-03-02T14:10:27;4.28;;;0.80;;
81714;SDS011;71125;44.066;2.982;2024-03-02T14:12:54;4.70;;;0.80;;
81714;SDS011;71125;44.066;2.982;2024-03-02T14:15:20;7.28;;;1.00;;
81714;SDS011;71125;44.066;2.982;2024-03-02T14:17:46;1.38;;;0.45;;
81714;SDS011;71125;44.066;2.982;2024-03-02T14:20:12;3.05;;;0.60;;
81714;SDS011;71125;44.066;2.982;2024-03-02T14:22:39;3.72;;;0.80;;
81714;SDS011;71125;44.066;2.982;2024-03-02T14:25:05;3.53;;;0.80;;
81714;SDS011;71125;44.066;2.982;2024-03-02T14:27:31;5.47;;;0.80;;
81714;SDS011;71125;44.066;2.982;2024-03-02T14:29:58;3.15;;;1.00;;
81714;SDS011;71125;44.066;2.982;2024-03-02T14:32:24;5.80;;;0.93;;
81714;SDS011;71125;44.066;2.982;2024-03-02T14:34:50;2.08;;;0.60;;
81714;SDS011;71125;44.066;2.982;2024-03-02T14:37:16;2.65;;;0.52;;
81714;SDS011;71125;44.066;2.982;2024-03-02T14:39:42;5.00;;;1.00;;
81714;SDS011;71125;44.066;2.982;2024-03-02T14:42:08;5.53;;;1.20;;
81714;SDS011;71125;44.066;2.982;2024-03-02T14:44:34;3.90;;;0.77;;
81714;SDS011;71125;44.066;2.982;2024-03-02T14:47:03;2.97;;;0.65;;
81714;SDS011;71125;44.066;2.982;2024-03-02T14:49:30;10.52;;;1.00;;
81714;SDS011;71125;44.066;2.982;2024-03-02T14:51:56;7.95;;;1.00;;
81714;SDS011;71125;44.066;2.982;2024-03-02T14:54:22;4.40;;;0.95;;
81714;SDS011;71125;44.066;2.982;2024-03-02T14:56:49;5.70;;;0.93;;
81714;SDS011;71125;44.066;2.982;2024-03-02T14:59:16;6.05;;;1.30;;
81714;SDS011;71125;44.066;2.982;2024-03-02T15:01:43;4.20;;;0.90;;
81714;SDS011;71125;44.066;2.982;2024-03-02T15:04:09;7.57;;;1.05;;
81714;SDS011;71125;44.066;2.982;2024-03-02T15:06:35;5.00;;;0.98;;
81714;SDS011;71125;44.066;2.982;2024-03-02T15:09:01;4.30;;;0.80;;
81714;SDS011;71125;44.066;2.982;2024-03-02T15:11:27;5.13;;;1.02;;
81714;SDS011;71125;44.066;2.982;2024-03-02T15:13:55;8.05;;;0.80;;
81714;SDS011;71125;44.066;2.982;2024-03-02T15:16:21;2.97;;;0.70;;
81714;SDS011;71125;44.066;2.982;2024-03-02T15:18:49;7.40;;;1.58;;
81714;SDS011;71125;44.066;2.982;2024-03-02T15:21:19;4.45;;;1.02;;
81714;SDS011;71125;44.066;2.982;2024-03-02T15:23:48;7.95;;;1.17;;
81714;SDS011;71125;44.066;2.982;2024-03-02T15:26:29;5.13;;;0.98;;
81714;SDS011;71125;44.066;2.982;2024-03-02T15:28:56;6.20;;;1.15;;
81714;SDS011;71125;44.066;2.982;2024-03-02T15:31:45;9.95;;;1.17;;
81714;SDS011;71125;44.066;2.982;2024-03-02T15:34:11;4.57;;;1.10;;
81714;SDS011;71125;44.066;2.982;2024-03-02T15:36:37;2.55;;;0.63;;
81714;SDS011;71125;44.066;2.982;2024-03-02T15:39:03;6.85;;;1.77;;
81714;SDS011;71125;44.066;2.982;2024-03-02T15:41:33;9.77;;;1.40;;
81714;SDS011;71125;44.066;2.982;2024-03-02T15:44:02;5.72;;;0.80;;
81714;SDS011;71125;44.066;2.982;2024-03-02T15:52:03;4.22;;;1.20;;
81714;SDS011;71125;44.066;2.982;2024-03-02T15:54:29;5.85;;;1.30;;
81714;SDS011;71125;44.066;2.982;2024-03-02T15:56:55;4.45;;;0.95;;
81714;SDS011;71125;44.066;2.982;2024-03-02T15:59:21;8.65;;;1.40;;
81714;SDS011;71125;44.066;2.982;2024-03-02T16:04:50;6.20;;;1.48;;